Aérodrome :
LOGIN :

S'inscrire | Disclaimer

   EN    FR    IT 

 










Légende :    VFR   VFR Marginal   IFR   IFR Intensif   IFR Très Intensif
Visi : 
Plafond : 
>= 8 km
>= 3000ft
5 à 8 km
1000 à 3000 ft
1500m à 5 km
500 à 1000 ft
800 à 1500m
200 à 500 ft
< 800m
< 200 ft
Symboles :   Orages  Brouillard  Fortes neiges  Fortes précipitations  Vent > 20 kt
SIGMETs :   Divers  Orages  Givrage  Turbulence  Onde Orograph.  Cendres Volcan.







- Altitude de l'aérodrome : 308 ft
- Code IATA : MHG


EDFM - Mannheim-City

DERNIER METAR :
  • 171720Z 19004KT 9999 OVC041 05/04 Q1025

METARs EXPIRÉS :
  • 171650Z 19006KT 9999 FEW022 SCT031 BKN040 05/04 Q1025
  • 171620Z 18006KT 9999 FEW016 SCT024 BKN030 05/04 Q1025
  • 171550Z 16005KT 130V190 9999 FEW007 BKN016 05/04 Q1024
  • 171450Z 13004KT 9999 SCT017 BKN030 05/04 Q1024

TAF TAF EDFM
Valide du 17 à 18h jusqu'au 17 à 21h UTC


171700Z 1718/1721 17005KT 8000 FEW020 SCT030 BKN035
Pas de NOTAMs connus pour ce terrain.



MET'MAP, la Météo Aéronautique d'un coup d'oeil ! - Copyright ORBIFLY Décembre 2007 - Disclaimer

ORBIFLY MET'MAP TEAM :

Programmation & Développement : Alexandra Zaïnal
Conception & Développement : Baudouin d'Aumeries
Co-Programmation & Développement : Marc-Olivier Méhu
Soutien technique & logistique : Manuel Goepfert

Contact : metmap@orbifly.com




SOURCES & CREDITS :

   NOAA